Terminal Aerodrome Forecast
Issued by NWS Quad Cities IA IL

Home | Current Version | Previous Version | Text Only | Print | Product List | Glossary On
Versions: 1 2 3 4 5 6 7 8 9 10 11 12 13 14 15 16 17 18 19 20 21 22 23 24 25 26 27
000
FTUS43 KDVN 212340
TAFMLI
TAF
KMLI 212340Z 2200/2224 01010KT P6SM BKN250
     FM220300 04007KT P6SM BKN200
     FM221600 07010KT P6SM VCSH OVC050
     FM221800 09010KT 5SM -RA OVC020=

USA.gov is the U.S. government's official web portal to all federal, state and local government web resources and services.